Time;durP1;ratioP1;P1;durP2;ratioP2;P2;SDS_P1;SDS_P2;PMS_P1;PMS_P2;Temp;Humidity;BMP_temperature;BMP_pressure;BME280_temperature;BME280_humidity;BME280_pressure;Samples;Min_cycle;Max_cycle;Signal;HPM_P1;HPM_P2
2023/04/11 00:01:20;;;;;;;24.95;6.22;;;;;;;8.48;100.00;100765.63;5072497;28;20373;-72
2023/04/11 00:03:46;;;;;;;27.90;6.97;;;;;;;8.48;100.00;100755.09;5072263;28;20021;-73
2023/04/11 00:06:11;;;;;;;28.50;7.25;;;;;;;8.48;100.00;100749.81;5072461;28;20025;-72
2023/04/11 00:08:36;;;;;;;29.30;7.35;;;;;;;8.44;100.00;100753.25;5072679;28;20025;-72
2023/04/11 00:11:02;;;;;;;27.48;7.03;;;;;;;8.42;100.00;100753.22;5072208;28;20041;-72
2023/04/11 00:13:27;;;;;;;29.85;7.30;;;;;;;8.40;100.00;100752.31;5072248;28;20037;-76
2023/04/11 00:15:54;;;;;;;27.02;7.55;;;;;;;8.38;100.00;100751.41;5072191;28;20528;-76
2023/04/11 00:18:20;;;;;;;29.65;7.97;;;;;;;8.27;100.00;100750.41;5072266;28;20055;-74
2023/04/11 00:20:46;;;;;;;27.75;7.47;;;;;;;8.16;100.00;100745.88;5072334;28;20376;-72
2023/04/11 00:23:11;;;;;;;28.85;7.55;;;;;;;8.06;100.00;100753.66;5072220;28;20029;-72
2023/04/11 00:25:37;;;;;;;29.35;7.70;;;;;;;7.92;100.00;100757.00;5072276;28;20455;-72
2023/04/11 00:28:03;;;;;;;31.58;7.70;;;;;;;7.88;100.00;100763.06;5072276;28;20120;-71
2023/04/11 00:30:28;;;;;;;27.60;7.97;;;;;;;7.84;100.00;100753.34;5072309;28;20025;-74
2023/04/11 00:32:53;;;;;;;27.20;7.60;;;;;;;7.77;100.00;100765.53;5072008;28;20404;-74
2023/04/11 00:35:19;;;;;;;30.63;8.20;;;;;;;7.72;100.00;100763.69;5072255;28;20051;-71
2023/04/11 00:37:45;;;;;;;28.65;8.18;;;;;;;7.67;100.00;100761.91;5071979;28;20029;-71
2023/04/11 00:40:14;;;;;;;31.42;8.20;;;;;;;7.65;100.00;100760.97;5071912;28;20029;-73
2023/04/11 00:42:40;;;;;;;30.83;8.02;;;;;;;7.58;100.00;100769.63;5068205;28;20051;-75
2023/04/11 00:45:06;;;;;;;28.98;8.00;;;;;;;7.58;100.00;100772.25;5071888;28;20111;-71
2023/04/11 00:47:33;;;;;;;31.02;8.27;;;;;;;7.54;100.00;100770.44;5075023;28;20033;-74
2023/04/11 00:49:58;;;;;;;30.83;8.48;;;;;;;7.57;100.00;100778.41;5075609;28;20029;-72
2023/04/11 00:52:24;;;;;;;28.45;8.15;;;;;;;7.63;100.00;100770.59;5075352;28;20036;-76
2023/04/11 00:54:50;;;;;;;32.63;7.97;;;;;;;7.77;100.00;100760.25;5075597;28;20025;-73
2023/04/11 00:57:15;;;;;;;30.42;8.65;;;;;;;7.87;100.00;100769.19;5075427;28;20112;-71
2023/04/11 00:59:41;;;;;;;29.45;7.95;;;;;;;7.85;100.00;100763.91;5075357;28;20032;-72
2023/04/11 01:02:07;;;;;;;29.65;7.90;;;;;;;7.84;100.00;100764.75;5075429;28;20029;-71
2023/04/11 01:04:32;;;;;;;27.80;7.85;;;;;;;7.91;100.00;100763.09;5075336;28;20150;-71
2023/04/11 01:07:02;;;;;;;29.67;7.82;;;;;;;7.82;100.00;100762.97;5075140;28;20043;-71
2023/04/11 01:09:30;;;;;;;29.45;7.38;;;;;;;7.78;100.00;100771.69;5075056;28;20107;-71
2023/04/11 01:11:56;;;;;;;28.63;7.20;;;;;;;7.76;100.00;100766.41;5075244;28;20028;-70
2023/04/11 01:14:24;;;;;;;32.63;7.68;;;;;;;7.68;100.00;100766.28;5075055;28;20037;-70
2023/04/11 01:16:51;;;;;;;30.40;7.43;;;;;;;7.73;100.00;100760.19;5074979;28;20032;-70
2023/04/11 01:19:21;;;;;;;30.55;7.65;;;;;;;7.64;100.00;100772.34;5075210;28;20032;-74
2023/04/11 01:21:48;;;;;;;27.05;7.05;;;;;;;7.60;100.00;100765.28;5074932;28;20063;-72
2023/04/11 01:24:14;;;;;;;30.85;7.32;;;;;;;7.56;100.00;100752.03;5074839;28;20024;-71
2023/04/11 01:26:39;;;;;;;29.98;7.47;;;;;;;7.57;100.00;100753.81;5075095;28;20036;-71
2023/04/11 01:29:05;;;;;;;29.00;7.07;;;;;;;7.57;100.00;100760.00;5074758;28;20033;-70
2023/04/11 01:31:31;;;;;;;32.17;7.15;;;;;;;7.60;100.00;100752.16;5074695;28;20400;-71
2023/04/11 01:33:58;;;;;;;31.48;7.15;;;;;;;7.57;100.00;100756.47;5074730;28;20032;-70
2023/04/11 01:36:23;;;;;;;30.50;7.50;;;;;;;7.57;100.00;100761.72;5074554;28;20035;-70
2023/04/11 01:38:49;;;;;;;29.10;6.93;;;;;;;7.53;100.00;100766.06;5074555;28;20111;-71
2023/04/11 01:41:16;;;;;;;32.03;7.80;;;;;;;7.47;100.00;100781.72;5074532;28;20041;-70
2023/04/11 01:43:43;;;;;;;31.15;7.35;;;;;;;7.40;100.00;100774.63;5074631;28;20119;-71
2023/04/11 01:46:10;;;;;;;31.58;7.25;;;;;;;7.31;100.00;100781.50;5074449;28;20028;-70
2023/04/11 01:48:36;;;;;;;30.95;7.20;;;;;;;7.24;100.00;100784.88;5074534;28;20024;-71
2023/04/11 01:51:02;;;;;;;29.52;7.38;;;;;;;7.22;100.00;100789.22;5074356;28;20107;-70
2023/04/11 01:53:27;;;;;;;29.05;7.32;;;;;;;7.16;100.00;100791.75;5074178;28;20035;-70
2023/04/11 01:55:52;;;;;;;32.80;7.18;;;;;;;7.17;100.00;100782.13;5074569;28;20060;-71
2023/04/11 01:58:18;;;;;;;31.60;8.18;;;;;;;7.16;100.00;100791.75;5073594;28;20486;-71
2023/04/11 02:00:43;;;;;;;28.88;7.50;;;;;;;7.11;100.00;100799.53;5074408;28;20514;-70
2023/04/11 02:03:08;;;;;;;29.75;7.63;;;;;;;7.13;100.00;100804.84;5074042;28;20029;-71
2023/04/11 02:05:34;;;;;;;30.90;7.65;;;;;;;7.19;100.00;100791.78;5073978;28;20036;-71
2023/04/11 02:07:59;;;;;;;31.20;7.70;;;;;;;7.20;100.00;100803.22;5074276;28;20391;-70
2023/04/11 02:10:24;;;;;;;31.02;7.80;;;;;;;7.19;100.00;100817.19;5073969;28;20024;-70
2023/04/11 02:12:50;;;;;;;28.90;7.65;;;;;;;7.29;100.00;100812.13;5073947;28;20035;-71
2023/04/11 02:15:15;;;;;;;35.67;7.72;;;;;;;7.32;100.00;100806.03;5074002;28;20161;-70
2023/04/11 02:17:44;;;;;;;29.50;7.90;;;;;;;7.29;100.00;100814.75;5072550;28;20036;-71
2023/04/11 02:20:11;;;;;;;31.33;8.13;;;;;;;7.19;100.00;100806.69;5069673;28;20032;-71
2023/04/11 02:22:37;;;;;;;31.92;8.13;;;;;;;7.15;100.00;100806.63;5073857;28;20047;-70
2023/04/11 02:25:02;;;;;;;33.10;8.10;;;;;;;7.21;100.00;100815.47;5073579;28;20024;-70
2023/04/11 02:27:28;;;;;;;32.65;8.23;;;;;;;7.26;100.00;100809.44;5073598;28;20137;-70
2023/04/11 02:29:53;;;;;;;30.85;7.60;;;;;;;7.37;100.00;100816.63;5073677;28;20024;-71
2023/04/11 02:32:18;;;;;;;31.00;7.25;;;;;;;7.38;100.00;100821.03;5073583;28;20035;-70
2023/04/11 02:34:44;;;;;;;32.17;7.75;;;;;;;7.37;100.00;100817.53;5073537;28;20043;-70
2023/04/11 02:37:10;;;;;;;32.42;8.10;;;;;;;7.40;100.00;100825.47;5069573;28;20024;-70
2023/04/11 02:39:35;;;;;;;32.55;7.43;;;;;;;7.41;100.00;100815.81;5073371;28;20028;-71
2023/04/11 02:42:00;;;;;;;30.58;8.30;;;;;;;7.40;100.00;100814.94;5073118;28;20047;-71
2023/04/11 02:44:28;;;;;;;25.35;6.50;;;;;;;7.46;100.00;100814.16;5073455;28;20111;-70
2023/04/11 02:46:53;;;;;;;28.00;6.32;;;;;;;7.37;100.00;100824.53;5073211;28;20035;-71
2023/04/11 02:49:19;;;;;;;29.88;6.93;;;;;;;7.38;100.00;100823.66;5073379;28;20020;-72
2023/04/11 02:51:44;;;;;;;28.23;6.95;;;;;;;7.41;100.00;100823.72;5073496;28;20170;-72
2023/04/11 02:54:10;;;;;;;27.98;6.63;;;;;;;7.39;100.00;100820.19;5068995;28;20402;-70
2023/04/11 02:56:37;;;;;;;28.05;6.38;;;;;;;7.29;100.00;100830.53;5073379;28;20070;-70
2023/04/11 02:59:04;;;;;;;27.63;6.10;;;;;;;7.25;100.00;100828.72;5073061;28;20063;-70
2023/04/11 03:01:29;;;;;;;26.63;5.82;;;;;;;7.21;100.00;100829.53;5072885;28;20036;-71
2023/04/11 03:03:55;;;;;;;25.67;5.63;;;;;;;7.20;100.00;100832.13;5073472;28;20028;-72
2023/04/11 03:06:22;;;;;;;26.38;5.82;;;;;;;7.14;100.00;100825.88;5072959;28;20021;-71
2023/04/11 03:08:48;;;;;;;25.73;5.22;;;;;;;7.25;100.00;100828.72;5072710;28;20040;-71
2023/04/11 03:11:14;;;;;;;27.10;5.75;;;;;;;7.25;100.00;100836.63;5072483;28;20048;-77
2023/04/11 03:13:40;;;;;;;25.75;5.90;;;;;;;7.20;100.00;100819.84;5068610;28;20063;-73
2023/04/11 03:16:06;;;;;;;26.10;5.47;;;;;;;7.23;100.00;100840.06;5072845;28;20114;-72
2023/04/11 03:18:32;;;;;;;25.45;4.90;;;;;;;7.21;100.00;100833.88;5072946;28;20059;-72
2023/04/11 03:20:57;;;;;;;25.60;4.90;;;;;;;7.21;100.00;100834.78;5072737;28;20025;-72
2023/04/11 03:23:23;;;;;;;24.80;5.13;;;;;;;7.21;100.00;100842.69;5072778;28;20081;-73
2023/04/11 03:25:48;;;;;;;23.77;4.60;;;;;;;7.21;100.00;100852.28;5071629;28;20036;-74
2023/04/11 03:28:14;;;;;;;24.13;4.78;;;;;;;7.20;100.00;100848.78;5072763;28;20029;-73
2023/04/11 03:30:41;;;;;;;23.65;4.55;;;;;;;7.18;100.00;100861.03;5071209;28;20025;-72
2023/04/11 03:33:07;;;;;;;22.63;4.22;;;;;;;7.22;100.00;100854.06;5072672;28;20032;-76
2023/04/11 03:35:32;;;;;;;23.38;4.20;;;;;;;7.21;100.00;100862.81;5072595;28;20090;-72
2023/04/11 03:37:58;;;;;;;24.50;4.78;;;;;;;7.19;100.00;100859.28;5072484;28;20040;-72
2023/04/11 03:40:23;;;;;;;22.45;4.25;;;;;;;7.13;100.00;100860.03;5072749;28;20032;-76
2023/04/11 03:42:49;;;;;;;23.90;3.88;;;;;;;7.10;100.00;100871.38;5072417;28;20124;-71
2023/04/11 03:45:15;;;;;;;23.33;3.95;;;;;;;7.10;100.00;100857.34;5072439;28;20024;-75
2023/04/11 03:47:40;;;;;;;23.55;4.25;;;;;;;7.11;100.00;100864.41;5068961;28;20039;-76
2023/04/11 03:50:07;;;;;;;22.50;4.20;;;;;;;7.13;100.00;100860.03;5072378;28;20052;-72
2023/04/11 03:52:32;;;;;;;23.05;4.10;;;;;;;7.15;100.00;100866.22;5072590;28;20115;-72
2023/04/11 03:54:58;;;;;;;22.98;4.63;;;;;;;7.13;100.00;100867.94;5072340;28;20115;-76
2023/04/11 03:57:25;;;;;;;22.48;4.40;;;;;;;7.13;100.00;100876.69;5072405;28;20395;-76
2023/04/11 03:59:51;;;;;;;21.63;4.22;;;;;;;7.06;100.00;100868.66;5072649;28;20453;-73
2023/04/11 04:02:17;;;;;;;22.52;4.25;;;;;;;7.04;100.00;100875.66;5072342;28;20024;-75
2023/04/11 04:04:45;;;;;;;21.70;4.15;;;;;;;6.95;100.00;100874.59;5072298;28;20130;-73
2023/04/11 04:07:11;;;;;;;24.80;4.38;;;;;;;6.92;100.00;100871.03;5068575;28;20455;-73
2023/04/11 04:09:37;;;;;;;22.58;4.35;;;;;;;6.90;100.00;100881.53;5072232;28;20471;-76
2023/04/11 04:12:02;;;;;;;24.27;4.28;;;;;;;6.82;100.00;100869.97;5072464;28;20108;-74
2023/04/11 04:14:28;;;;;;;21.30;4.18;;;;;;;6.76;100.00;100875.97;5072402;28;20101;-73
2023/04/11 04:16:53;;;;;;;24.63;4.60;;;;;;;6.71;100.00;100872.34;5072152;28;20372;-74
2023/04/11 04:19:19;;;;;;;23.20;4.43;;;;;;;6.73;100.00;100880.31;5072237;28;20029;-74
2023/04/11 04:21:45;;;;;;;23.30;4.45;;;;;;;6.67;100.00;100885.41;5074428;28;20027;-72
2023/04/11 04:24:11;;;;;;;23.55;4.40;;;;;;;6.66;100.00;100886.28;5071916;28;20025;-72
2023/04/11 04:26:38;;;;;;;22.10;4.90;;;;;;;6.67;100.00;100896.81;5075898;28;20028;-73
2023/04/11 04:29:03;;;;;;;24.00;4.60;;;;;;;6.57;100.00;100882.59;5076069;28;20024;-72
2023/04/11 04:31:32;;;;;;;25.52;4.82;;;;;;;6.53;100.00;100891.25;5075805;28;20456;-73
2023/04/11 04:34:01;;;;;;;26.02;5.45;;;;;;;6.44;100.00;100894.56;5075658;28;20036;-72
2023/04/11 04:36:27;;;;;;;24.27;4.80;;;;;;;6.40;100.00;100907.59;5076005;28;20521;-77
2023/04/11 04:38:56;;;;;;;26.35;5.18;;;;;;;6.37;100.00;100911.03;5075739;28;20115;-71
2023/04/11 04:41:22;;;;;;;30.05;5.57;;;;;;;6.30;100.00;100913.50;5075669;28;20053;-75
2023/04/11 04:43:47;;;;;;;27.92;5.50;;;;;;;6.33;100.00;100916.19;5075881;28;20471;-73
2023/04/11 04:46:13;;;;;;;26.20;5.45;;;;;;;6.30;100.00;100926.63;5075647;28;20067;-71
2023/04/11 04:48:38;;;;;;;27.52;5.10;;;;;;;6.20;100.00;100922.88;5075557;28;20025;-71
2023/04/11 04:51:05;;;;;;;26.80;5.40;;;;;;;6.06;100.00;100928.72;5075653;28;20028;-71
2023/04/11 04:53:33;;;;;;;23.55;5.18;;;;;;;6.07;100.00;100924.34;5075452;28;20031;-71
2023/04/11 04:56:02;;;;;;;25.67;5.40;;;;;;;6.19;100.00;100931.59;5075490;28;20043;-70
2023/04/11 04:58:27;;;;;;;22.65;4.72;;;;;;;6.13;100.00;100937.63;5075501;28;20480;-71
2023/04/11 05:00:56;;;;;;;26.02;5.40;;;;;;;6.07;100.00;100943.63;5075357;28;20113;-71
2023/04/11 05:03:21;;;;;;;26.10;5.05;;;;;;;5.96;100.00;100949.41;5075487;28;20086;-70
2023/04/11 05:05:47;;;;;;;26.65;5.10;;;;;;;5.96;100.00;100957.28;5075482;28;20032;-71
2023/04/11 05:08:13;;;;;;;23.80;4.65;;;;;;;5.93;100.00;100951.09;5075165;28;20029;-70
2023/04/11 05:10:38;;;;;;;24.13;4.65;;;;;;;5.99;100.00;100952.16;5075011;28;20025;-72
2023/04/11 05:13:03;;;;;;;26.98;4.78;;;;;;;5.96;100.00;100952.03;5075259;28;20127;-70
2023/04/11 05:15:29;;;;;;;24.10;4.47;;;;;;;5.89;100.00;100953.63;5074929;28;20446;-70
2023/04/11 05:17:54;;;;;;;23.30;4.45;;;;;;;5.87;100.00;100958.81;5074991;28;20483;-73
2023/04/11 05:20:20;;;;;;;25.17;4.70;;;;;;;5.91;100.00;100968.56;5075415;28;20082;-72
2023/04/11 05:22:47;;;;;;;24.40;5.10;;;;;;;5.96;100.00;100962.53;5075281;28;20108;-71
2023/04/11 05:25:13;;;;;;;24.60;4.68;;;;;;;5.92;100.00;100962.44;5071053;28;20072;-71
2023/04/11 05:27:38;;;;;;;23.38;4.57;;;;;;;5.99;100.00;100966.16;5074985;28;20479;-71
2023/04/11 05:30:05;;;;;;;24.70;4.85;;;;;;;6.01;100.00;100966.19;5074629;28;20020;-71
2023/04/11 05:32:30;;;;;;;23.08;4.68;;;;;;;5.99;100.00;100978.41;5072450;28;20434;-76
2023/04/11 05:34:56;;;;;;;23.80;4.25;;;;;;;6.02;100.00;100967.97;5074782;28;20074;-74
2023/04/11 05:37:21;;;;;;;21.70;4.18;;;;;;;6.05;100.00;100983.78;5074561;28;20071;-73
2023/04/11 05:39:46;;;;;;;22.08;4.10;;;;;;;6.00;100.00;100978.44;5073579;28;20052;-73
2023/04/11 05:42:14;;;;;;;25.33;4.10;;;;;;;6.01;100.00;100990.69;5074197;28;20135;-68
2023/04/11 05:44:39;;;;;;;23.88;4.20;;;;;;;5.98;100.00;100989.72;5073607;28;20032;-71
2023/04/11 05:47:04;;;;;;;22.15;3.92;;;;;;;5.99;100.00;100995.00;5069465;28;20033;-77
2023/04/11 05:49:30;;;;;;;22.33;4.70;;;;;;;6.04;100.00;101003.00;5071193;28;20029;-73
2023/04/11 05:51:55;;;;;;;21.25;4.43;;;;;;;6.05;100.00;101005.66;5063872;28;20021;-72
2023/04/11 05:54:35;;;;;;;22.63;4.03;;;;;;;6.07;100.00;101005.69;5070540;28;20089;-71
2023/04/11 05:57:02;;;;;;;23.88;4.43;;;;;;;6.11;100.00;101008.44;5072266;28;20407;-73
2023/04/11 05:59:30;;;;;;;24.35;4.60;;;;;;;6.27;100.00;101017.56;5076339;28;20103;-71
2023/04/11 06:01:56;;;;;;;21.52;4.18;;;;;;;6.32;100.00;101014.19;5071893;28;20038;-71
2023/04/11 06:04:21;;;;;;;23.05;4.43;;;;;;;6.30;100.00;101021.16;5065743;28;20020;-74
2023/04/11 06:06:47;;;;;;;21.38;4.13;;;;;;;6.24;100.00;101014.88;5069768;28;20032;-72
2023/04/11 06:09:12;;;;;;;24.08;4.10;;;;;;;6.25;100.00;101027.16;5069331;28;20040;-72
2023/04/11 06:11:37;;;;;;;23.42;4.43;;;;;;;6.26;100.00;101028.97;5077727;28;20124;-74
2023/04/11 06:14:03;;;;;;;24.55;4.80;;;;;;;6.27;100.00;101027.22;5071685;28;20040;-76
2023/04/11 06:16:30;;;;;;;24.08;4.80;;;;;;;6.31;100.00;101029.06;5065535;28;20036;-78
2023/04/11 06:18:56;;;;;;;25.23;4.90;;;;;;;6.35;100.00;101030.91;5075949;28;20035;-71
2023/04/11 06:21:21;;;;;;;23.35;4.65;;;;;;;6.36;100.00;101031.78;5073679;28;20024;-71
2023/04/11 06:23:46;;;;;;;24.58;4.35;;;;;;;6.41;100.00;101031.06;5067660;28;20044;-72
2023/04/11 06:26:11;;;;;;;22.80;4.50;;;;;;;6.56;100.00;101030.53;5066898;28;20475;-72
2023/04/11 06:28:37;;;;;;;20.55;4.20;;;;;;;6.61;100.00;101031.53;5064455;28;20575;-76
2023/04/11 06:31:02;;;;;;;22.88;4.30;;;;;;;6.66;100.00;101025.50;5075371;28;20028;-74
2023/04/11 06:33:28;;;;;;;23.55;4.15;;;;;;;6.72;100.00;101030.91;5064507;28;20097;-74
2023/04/11 06:35:53;;;;;;;22.80;4.68;;;;;;;6.79;100.00;101043.34;5069528;28;20506;-72
2023/04/11 06:38:18;;;;;;;23.63;4.50;;;;;;;6.87;100.00;101036.50;5066106;28;20111;-74
2023/04/11 06:40:44;;;;;;;21.83;4.07;;;;;;;6.92;100.00;101048.00;5073848;28;20025;-72
2023/04/11 06:43:10;;;;;;;22.10;4.50;;;;;;;6.97;100.00;101041.13;5067310;28;20121;-76
2023/04/11 06:45:35;;;;;;;21.67;4.15;;;;;;;7.04;100.00;101039.50;5075911;28;20032;-72
2023/04/11 06:48:00;;;;;;;22.92;4.18;;;;;;;7.07;100.00;101054.47;5070372;28;20102;-75
2023/04/11 06:50:26;;;;;;;25.35;4.72;;;;;;;7.13;100.00;101044.94;5067122;28;20054;-73
2023/04/11 06:52:51;;;;;;;21.35;3.90;;;;;;;7.19;100.00;101054.72;5070824;28;20028;-71
2023/04/11 06:55:16;;;;;;;23.55;4.53;;;;;;;7.22;100.00;101052.16;5066482;28;20131;-74
2023/04/11 06:57:42;;;;;;;19.83;4.00;;;;;;;7.28;100.00;101070.72;5068408;28;20067;-70
2023/04/11 07:00:08;;;;;;;20.67;3.80;;;;;;;7.30;100.00;101062.84;5072429;28;20020;-78
2023/04/11 07:02:37;;;;;;;20.38;4.10;;;;;;;7.35;100.00;101070.84;5067752;28;20032;-78
2023/04/11 07:05:03;;;;;;;23.75;4.28;;;;;;;7.51;100.00;101062.41;5068066;28;20032;-73
2023/04/11 07:07:30;;;;;;;23.63;4.40;;;;;;;7.55;100.00;101069.50;5072588;28;20071;-73
2023/04/11 07:09:55;;;;;;;22.63;4.40;;;;;;;7.57;100.00;101078.34;5068032;28;20033;-74
2023/04/11 07:12:21;;;;;;;22.67;4.15;;;;;;;7.57;100.00;101075.69;5072355;28;20074;-74
2023/04/11 07:14:46;;;;;;;23.15;4.63;;;;;;;7.59;100.00;101076.59;5066956;28;20127;-73
2023/04/11 07:17:11;;;;;;;22.85;4.65;;;;;;;7.83;100.00;101077.94;5071359;28;20043;-72
2023/04/11 07:19:37;;;;;;;21.98;4.38;;;;;;;7.99;100.00;101077.41;5068121;28;20043;-71
2023/04/11 07:22:03;;;;;;;23.77;4.95;;;;;;;7.99;100.00;101082.66;5072378;28;20032;-71
2023/04/11 07:24:29;;;;;;;22.67;4.60;;;;;;;8.09;100.00;101080.19;5065571;28;20497;-71
2023/04/11 07:26:57;;;;;;;23.58;4.97;;;;;;;8.17;100.00;101102.28;5068411;28;20032;-71
2023/04/11 07:29:22;;;;;;;23.48;4.95;;;;;;;8.13;100.00;101092.56;5067344;28;20025;-71
2023/04/11 07:31:49;;;;;;;21.95;4.20;;;;;;;8.19;100.00;101095.28;5075339;28;20035;-71
2023/04/11 07:34:14;;;;;;;21.85;4.60;;;;;;;8.18;100.00;101081.25;5067652;28;20029;-69
2023/04/11 07:36:40;;;;;;;21.13;4.72;;;;;;;8.10;100.00;101101.28;5063981;28;20395;-70
2023/04/11 07:39:08;;;;;;;24.45;4.60;;;;;;;8.12;100.00;101102.19;5071645;28;20028;-72
2023/04/11 07:41:35;;;;;;;23.02;5.30;;;;;;;8.12;100.00;101102.19;5068982;28;20427;-72
2023/04/11 07:44:01;;;;;;;24.58;4.78;;;;;;;8.26;100.00;101102.44;5070346;28;20082;-72
2023/04/11 07:46:26;;;;;;;21.38;4.55;;;;;;;8.50;100.00;101104.66;5069545;28;20111;-72
2023/04/11 07:48:52;;;;;;;20.70;4.13;;;;;;;8.57;100.00;101115.31;5068364;28;20112;-72
2023/04/11 07:51:17;;;;;;;21.17;4.40;;;;;;;8.59;100.00;101106.56;5050710;28;20064;-72
2023/04/11 07:53:43;;;;;;;21.13;4.57;;;;;;;8.50;100.00;101109.94;5066380;28;20029;-72
2023/04/11 07:56:09;;;;;;;21.15;4.38;;;;;;;8.63;100.00;101103.09;5071817;28;20029;-72
2023/04/11 07:58:34;;;;;;;22.08;4.05;;;;;;;8.85;100.00;101109.63;5077239;28;20038;-74
2023/04/11 08:01:01;;;;;;;20.48;3.90;;;;;;;9.03;100.00;101109.00;5070480;28;20107;-72
2023/04/11 08:03:27;;;;;;;19.60;4.00;;;;;;;8.97;100.00;101119.47;5074898;28;20436;-72
2023/04/11 08:05:52;;;;;;;20.80;3.90;;;;;;;8.79;100.00;101119.16;5069076;28;20032;-73
2023/04/11 08:08:18;;;;;;;19.60;4.03;;;;;;;8.96;100.00;101112.41;5076420;28;20081;-72
2023/04/11 08:10:43;;;;;;;20.23;4.07;;;;;;;9.08;100.00;101125.75;5076373;28;20108;-72
2023/04/11 08:13:08;;;;;;;20.27;4.03;;;;;;;9.35;100.00;101118.22;5074997;28;20029;-73
2023/04/11 08:15:35;;;;;;;19.52;3.85;;;;;;;9.18;100.00;101125.91;5076536;28;20048;-72
2023/04/11 08:18:01;;;;;;;20.63;4.10;;;;;;;9.14;100.00;101122.34;5076113;28;20029;-72
2023/04/11 08:20:26;;;;;;;20.75;3.72;;;;;;;9.16;100.00;101131.19;5076059;28;20027;-72
2023/04/11 08:22:51;;;;;;;20.83;3.90;;;;;;;9.48;100.00;101130.75;5074841;28;20391;-72
2023/04/11 08:25:24;;;;;;;17.67;3.50;;;;;;;9.98;100.00;101145.44;5076000;28;20028;-72
2023/04/11 08:27:49;;;;;;;21.10;3.83;;;;;;;10.11;100.00;101157.03;5069202;28;20096;-71
2023/04/11 08:30:16;;;;;;;19.33;3.53;;;;;;;9.67;100.00;101158.25;5069299;28;20183;-70
2023/04/11 08:32:42;;;;;;;19.15;3.30;;;;;;;9.66;100.00;101148.56;5066850;28;20024;-73
2023/04/11 08:35:08;;;;;;;19.52;3.70;;;;;;;9.96;100.00;101155.09;5076155;28;20525;-72
2023/04/11 08:37:33;;;;;;;15.85;3.20;;;;;;;9.90;98.94;101142.72;5070226;28;20028;-72
2023/04/11 08:39:58;;;;;;;19.10;3.33;;;;;;;9.87;100.00;101157.63;5073058;28;20031;-71
2023/04/11 08:42:29;;;;;;;18.65;3.53;;;;;;;9.95;97.07;101169.16;5072589;28;20052;-71
2023/04/11 08:44:56;;;;;;;17.95;3.25;;;;;;;9.93;81.30;101152.41;5071367;28;20029;-69
2023/04/11 08:47:22;;;;;;;19.02;3.45;;;;;;;9.84;85.74;101179.59;5072605;28;20484;-71
2023/04/11 08:49:48;;;;;;;20.45;3.30;;;;;;;9.96;93.02;101168.31;5067654;28;20043;-70
2023/04/11 08:52:15;;;;;;;19.88;3.10;;;;;;;10.30;84.53;101160.75;5070911;28;20029;-70
2023/04/11 08:54:41;;;;;;;19.40;3.28;;;;;;;10.10;79.58;101158.75;5073864;28;20039;-71
2023/04/11 08:57:06;;;;;;;20.58;3.50;;;;;;;10.75;82.97;101167.38;5073319;28;20394;-69
2023/04/11 08:59:34;;;;;;;18.83;3.42;;;;;;;11.50;78.98;101169.69;5063930;28;20048;-70
2023/04/11 09:02:08;;;;;;;19.88;3.50;;;;;;;10.96;75.82;101149.91;5074174;28;20103;-70
2023/04/11 09:04:43;;;;;;;18.17;3.10;;;;;;;11.20;72.54;101162.44;5069720;28;20120;-72
2023/04/11 09:07:10;;;;;;;19.33;3.30;;;;;;;11.19;67.91;101162.44;5068694;28;20154;-70
2023/04/11 09:09:36;;;;;;;18.85;3.35;;;;;;;11.54;70.51;101154.72;5067601;28;20021;-71
2023/04/11 09:12:03;;;;;;;20.58;3.70;;;;;;;11.42;71.78;101163.47;5072900;28;20367;-73
2023/04/11 09:14:29;;;;;;;20.45;3.70;;;;;;;11.86;72.50;101153.97;5077812;28;20039;-72
2023/04/11 09:16:59;;;;;;;18.42;3.33;;;;;;;12.36;68.18;101157.69;5076562;28;20029;-73
2023/04/11 09:19:27;;;;;;;18.90;3.30;;;;;;;12.96;67.25;101171.00;5071737;28;20027;-71
2023/04/11 09:21:55;;;;;;;18.35;3.05;;;;;;;12.39;63.03;101178.88;5072184;28;20028;-71
2023/04/11 09:24:21;;;;;;;20.02;2.97;;;;;;;11.08;63.48;101176.47;5067066;28;20465;-71
2023/04/11 09:26:47;;;;;;;15.93;3.00;;;;;;;10.78;64.58;101190.34;5074304;28;20037;-71
2023/04/11 09:29:33;;;;;;;16.98;2.90;;;;;;;10.74;64.76;101176.19;5074775;28;20039;-72
2023/04/11 09:31:59;;;;;;;15.50;2.72;;;;;;;11.08;68.09;101163.25;5072992;28;20095;-71
2023/04/11 09:34:27;;;;;;;20.23;3.70;;;;;;;11.29;70.13;101185.44;5066899;28;20082;-71
2023/04/11 09:36:54;;;;;;;17.38;3.00;;;;;;;11.42;67.33;101155.53;5072301;28;20031;-72
2023/04/11 09:39:20;;;;;;;18.30;3.00;;;;;;;11.56;65.52;101174.13;5072617;28;20383;-72
2023/04/11 09:41:45;;;;;;;17.65;2.85;;;;;;;11.73;64.25;101168.91;5069264;28;20040;-72
2023/04/11 09:44:11;;;;;;;17.38;3.28;;;;;;;12.14;60.70;101170.88;5070617;28;20039;-71
2023/04/11 09:46:54;;;;;;;18.63;2.97;;;;;;;12.26;58.17;101178.00;5071875;28;20032;-71
2023/04/11 09:49:20;;;;;;;14.95;2.67;;;;;;;12.40;55.73;101191.28;5073687;28;20025;-71
2023/04/11 09:51:46;;;;;;;16.92;2.85;;;;;;;12.69;54.91;101183.34;5072219;28;20027;-75
2023/04/11 09:54:11;;;;;;;14.68;2.60;;;;;;;13.00;53.92;101178.06;5069814;28;20455;-71
2023/04/11 09:56:37;;;;;;;15.38;2.80;;;;;;;13.22;55.74;101176.28;5074306;28;20033;-71
2023/04/11 09:59:03;;;;;;;15.75;2.70;;;;;;;12.75;51.79;101194.88;5070663;28;20078;-71
2023/04/11 10:01:29;;;;;;;15.52;2.70;;;;;;;12.35;53.49;101179.78;5074195;28;20029;-71
2023/04/11 10:03:54;;;;;;;15.20;2.60;;;;;;;13.04;50.95;101179.84;5074083;28;20475;-70
2023/04/11 10:06:37;;;;;;;16.38;2.85;;;;;;;13.45;52.92;101180.69;5074354;28;20024;-71
2023/04/11 10:09:10;;;;;;;17.33;3.10;;;;;;;14.26;51.10;101192.78;5070195;28;20033;-71
2023/04/11 10:11:42;;;;;;;16.83;2.95;;;;;;;14.45;48.80;101176.75;5070363;28;20032;-71
2023/04/11 10:14:07;;;;;;;16.92;2.90;;;;;;;14.37;48.46;101181.22;5070533;28;20036;-71
2023/04/11 10:16:33;;;;;;;15.57;2.70;;;;;;;14.86;49.33;101183.56;5074212;28;20471;-71
2023/04/11 10:19:03;;;;;;;14.52;2.60;;;;;;;14.28;48.60;101180.41;5072193;28;20074;-71
2023/04/11 10:21:38;;;;;;;16.95;2.80;;;;;;;13.60;48.89;101174.44;5073735;28;20028;-72
2023/04/11 10:24:11;;;;;;;13.35;2.67;;;;;;;13.91;48.90;101174.38;5069929;28;20032;-71
2023/04/11 10:26:55;;;;;;;;;;;;;;;14.24;47.82;101183.97;5070775;28;20029;-71
2023/04/11 10:29:32;;;;;;;16.42;2.70;;;;;;;12.69;49.30;101177.19;5072109;28;20371;-72
2023/04/11 10:32:11;;;;;;;16.45;2.60;;;;;;;12.73;49.56;101179.84;5073750;28;20076;-71
2023/04/11 10:34:38;;;;;;;16.65;2.60;;;;;;;12.31;50.19;101178.88;5068702;28;20032;-71
2023/04/11 10:37:08;;;;;;;17.15;2.53;;;;;;;12.54;51.71;101176.28;5069622;28;20017;-71
2023/04/11 10:39:49;;;;;;;14.38;2.42;;;;;;;13.30;49.19;101178.06;5069711;28;20031;-71
2023/04/11 10:42:33;;;;;;;10.30;2.35;;;;;;;14.33;46.82;101192.75;5070880;28;20040;-73
2023/04/11 10:45:23;;;;;;;11.73;2.40;;;;;;;13.47;45.90;101180.69;5073616;28;20045;-71
2023/04/11 10:47:55;;;;;;;14.40;2.60;;;;;;;13.39;46.77;101180.72;5071489;28;20040;-72
2023/04/11 10:50:27;;;;;;;17.55;2.60;;;;;;;14.08;46.07;101180.50;5073402;28;20066;-72
2023/04/11 10:52:54;;;;;;;16.02;2.70;;;;;;;16.25;44.50;101176.78;5073009;28;20024;-71
2023/04/11 10:55:20;;;;;;;15.05;2.72;;;;;;;17.25;41.78;101188.53;5072903;28;20094;-72
2023/04/11 10:58:08;;;;;;;16.20;2.20;;;;;;;16.84;39.93;101191.91;5067358;28;20022;-71
2023/04/11 11:00:45;;;;;;;13.18;2.50;;;;;;;14.73;41.47;101190.75;5067561;28;20050;-72
2023/04/11 11:03:21;;;;;;;16.15;2.60;;;;;;;13.25;43.38;101188.66;5071453;28;20063;-74
2023/04/11 11:05:57;;;;;;;15.95;2.50;;;;;;;13.95;45.77;101186.75;5067582;28;20028;-70
2023/04/11 11:08:33;;;;;;;12.25;2.20;;;;;;;15.11;41.88;101202.88;5064559;28;20036;-70
2023/04/11 11:11:07;;;;;;;16.23;2.60;;;;;;;15.71;40.47;101185.41;5074782;28;20431;-70
2023/04/11 11:13:48;;;;;;;15.77;2.50;;;;;;;16.87;40.70;101187.41;5067148;28;20028;-70
2023/04/11 11:16:16;;;;;;;12.43;2.50;;;;;;;16.59;37.70;101196.75;5065338;28;20035;-70